Time;durP1;ratioP1;P1;durP2;ratioP2;P2;SDS_P1;SDS_P2;PMS_P1;PMS_P2;Temp;Humidity;BMP_temperature;BMP_pressure;BME280_temperature;BME280_humidity;BME280_pressure;Samples;Min_cycle;Max_cycle;Signal;HPM_P1;HPM_P2
2021/12/01 00:02:09;;;;;;;0.00;0.00;;;11.40;99.90;;;;;;5055643;28;20079;-80
2021/12/01 00:04:34;;;;;;;0.05;0.05;;;11.60;99.90;;;;;;5054872;28;20207;-80
2021/12/01 00:07:00;;;;;;;0.15;0.13;;;11.70;99.90;;;;;;5056171;28;20036;-81
2021/12/01 00:09:26;;;;;;;0.65;0.40;;;11.70;99.90;;;;;;5055921;28;20103;-80
2021/12/01 00:11:51;;;;;;;1.27;1.17;;;11.90;99.90;;;;;;5056161;28;20108;-80
2021/12/01 00:14:17;;;;;;;2.08;1.25;;;11.90;99.90;;;;;;5055826;28;20025;-81
2021/12/01 00:16:43;;;;;;;0.10;0.10;;;11.90;99.90;;;;;;5054468;28;20078;-81
2021/12/01 00:19:08;;;;;;;0.80;0.38;;;11.80;99.90;;;;;;5054548;28;20475;-81
2021/12/01 00:21:34;;;;;;;0.00;0.00;;;11.80;99.90;;;;;;5056034;28;20078;-80
2021/12/01 00:24:00;;;;;;;0.00;0.00;;;11.80;99.90;;;;;;5056095;28;20031;-81
2021/12/01 00:26:26;;;;;;;0.00;0.00;;;11.80;99.90;;;;;;5055749;28;20530;-81
2021/12/01 00:28:52;;;;;;;0.00;0.00;;;11.70;99.90;;;;;;5055888;28;20586;-81
2021/12/01 00:31:18;;;;;;;0.10;0.10;;;11.70;99.90;;;;;;5055525;28;20025;-80
2021/12/01 00:33:43;;;;;;;0.82;0.32;;;11.70;99.90;;;;;;5055453;28;20048;-81
2021/12/01 00:36:13;;;;;;;0.38;0.38;;;11.70;99.90;;;;;;5055800;28;20041;-81
2021/12/01 00:38:40;;;;;;;0.00;0.00;;;11.70;99.90;;;;;;5053190;28;20032;-81
2021/12/01 00:41:07;;;;;;;0.00;0.00;;;11.70;99.90;;;;;;5055494;28;20033;-81
2021/12/01 00:43:36;;;;;;;0.00;0.00;;;11.70;99.90;;;;;;5055290;28;20159;-80
2021/12/01 00:46:11;;;;;;;0.00;0.00;;;11.70;99.90;;;;;;5054679;28;20100;-81
2021/12/01 00:48:37;;;;;;;1.45;1.10;;;11.70;99.90;;;;;;5054998;28;20029;-81
2021/12/01 00:51:03;;;;;;;0.00;0.00;;;11.80;99.90;;;;;;5055031;28;20035;-81
2021/12/01 00:53:28;;;;;;;3.63;1.08;;;11.80;99.90;;;;;;5054196;28;20033;-81
2021/12/01 00:55:54;;;;;;;0.00;0.00;;;11.80;99.90;;;;;;5054133;28;20018;-80
2021/12/01 00:58:20;;;;;;;0.63;0.63;;;11.80;99.90;;;;;;5055151;28;20035;-81
2021/12/01 01:00:49;;;;;;;0.82;0.28;;;11.90;99.90;;;;;;5054744;28;20474;-80
2021/12/01 01:03:15;;;;;;;0.15;0.15;;;11.90;99.90;;;;;;5055023;28;20079;-81
2021/12/01 01:05:41;;;;;;;0.38;0.38;;;11.90;99.90;;;;;;5052957;28;20155;-81
2021/12/01 01:08:07;;;;;;;0.00;0.00;;;11.90;99.90;;;;;;5054677;28;20112;-81
2021/12/01 01:18:42;;;;;;;0.00;0.00;;;11.80;99.90;;;;;;5054994;28;20117;-80
2021/12/01 01:21:09;;;;;;;0.00;0.00;;;11.70;99.90;;;;;;5053837;28;20029;-80
2021/12/01 01:23:35;;;;;;;0.32;0.32;;;11.70;99.90;;;;;;5055028;28;20029;-81
2021/12/01 01:26:04;;;;;;;1.48;1.38;;;11.70;99.90;;;;;;5054611;28;20068;-81
2021/12/01 01:28:30;;;;;;;0.00;0.00;;;11.80;99.90;;;;;;5054824;28;20029;-80
2021/12/01 01:30:57;;;;;;;2.17;1.08;;;11.70;99.90;;;;;;5054770;28;20079;-80
2021/12/01 01:33:23;;;;;;;37.45;0.65;;;11.70;99.90;;;;;;5054346;28;20028;-81
2021/12/01 01:35:49;;;;;;;0.00;0.00;;;11.70;99.90;;;;;;5054456;28;20025;-81
2021/12/01 01:38:15;;;;;;;0.00;0.00;;;11.80;99.90;;;;;;5053568;28;20040;-80
2021/12/01 01:40:41;;;;;;;0.20;0.20;;;11.80;99.90;;;;;;5054733;28;20093;-81
2021/12/01 01:43:07;;;;;;;1.95;1.25;;;11.80;99.90;;;;;;5054662;28;20029;-80
2021/12/01 01:45:33;;;;;;;0.00;0.00;;;11.80;99.90;;;;;;5054701;28;20029;-80
2021/12/01 01:48:03;;;;;;;0.70;0.70;;;11.80;99.90;;;;;;5053976;28;20471;-81
2021/12/01 01:50:35;;;;;;;1.38;0.70;;;11.80;99.90;;;;;;5054116;28;20028;-81
2021/12/01 01:53:03;;;;;;;8.88;2.28;;;11.80;99.90;;;;;;5054144;28;20048;-81
2021/12/01 01:55:29;;;;;;;0.00;0.00;;;11.80;99.90;;;;;;5054275;28;20025;-80
2021/12/01 01:57:55;;;;;;;0.00;0.00;;;11.80;99.90;;;;;;5054186;28;20028;-80
2021/12/01 02:00:20;;;;;;;0.00;0.00;;;11.80;99.90;;;;;;5053534;28;20029;-81
2021/12/01 02:02:47;;;;;;;0.38;0.38;;;11.90;99.90;;;;;;5054133;28;20028;-80
2021/12/01 02:05:13;;;;;;;0.00;0.00;;;11.90;99.90;;;;;;5052583;28;20032;-80
2021/12/01 02:07:38;;;;;;;0.00;0.00;;;11.90;99.90;;;;;;5054068;28;20099;-81
2021/12/01 02:10:05;;;;;;;0.00;0.00;;;12.00;99.90;;;;;;5053896;28;20025;-81
2021/12/01 02:12:30;;;;;;;0.00;0.00;;;12.00;99.90;;;;;;5053908;28;20032;-81
2021/12/01 02:14:56;;;;;;;0.22;0.22;;;12.00;99.90;;;;;;5053339;28;20100;-81
2021/12/01 02:17:22;;;;;;;0.00;0.00;;;12.00;99.90;;;;;;5052290;28;20057;-81
2021/12/01 02:19:52;;;;;;;0.00;0.00;;;12.00;99.90;;;;;;5053713;28;20564;-81
2021/12/01 02:22:17;;;;;;;0.00;0.00;;;12.00;99.90;;;;;;5053755;28;20021;-81
2021/12/01 02:24:46;;;;;;;0.00;0.00;;;12.00;99.90;;;;;;5051926;28;20067;-80
2021/12/01 02:27:13;;;;;;;0.00;0.00;;;12.00;99.90;;;;;;5053771;28;20017;-81
2021/12/01 02:29:39;;;;;;;0.00;0.00;;;11.90;99.90;;;;;;5053886;28;20104;-81
2021/12/01 02:32:05;;;;;;;0.00;0.00;;;11.90;99.90;;;;;;5053494;28;20100;-81
2021/12/01 02:34:38;;;;;;;6.32;1.30;;;11.80;99.90;;;;;;5053338;28;20025;-81
2021/12/01 02:37:05;;;;;;;0.00;0.00;;;11.80;99.90;;;;;;5053562;28;20028;-81
2021/12/01 02:39:31;;;;;;;0.65;0.65;;;11.80;99.90;;;;;;5050985;28;20040;-81
2021/12/01 02:41:59;;;;;;;0.15;0.15;;;11.80;99.90;;;;;;5052438;28;20025;-81
2021/12/01 02:44:27;;;;;;;0.00;0.00;;;11.80;99.90;;;;;;5053455;28;20025;-81
2021/12/01 02:46:53;;;;;;;0.00;0.00;;;11.90;99.90;;;;;;5053348;28;20063;-81
2021/12/01 02:49:21;;;;;;;1.17;1.08;;;11.90;99.90;;;;;;5053169;28;20029;-80
2021/12/01 02:51:48;;;;;;;0.00;0.00;;;11.80;99.90;;;;;;5053053;28;20028;-80
2021/12/01 02:54:14;;;;;;;0.10;0.10;;;11.90;99.90;;;;;;5053002;28;20049;-81
2021/12/01 02:56:46;;;;;;;2.55;1.98;;;11.90;99.90;;;;;;5053205;28;20122;-81
2021/12/01 02:59:19;;;;;;;0.00;0.00;;;11.90;99.90;;;;;;5053078;28;20396;-81
2021/12/01 03:01:44;;;;;;;;;;;11.90;99.90;;;;;;5052919;28;20495;-81
2021/12/01 03:04:11;;;;;;;0.00;0.00;;;11.90;99.90;;;;;;5052402;28;20001;-80
2021/12/01 03:06:41;;;;;;;2.78;1.35;;;11.80;99.90;;;;;;5052949;28;20017;-81
2021/12/01 03:09:08;;;;;;;0.55;0.55;;;11.80;99.90;;;;;;5052505;28;20106;-81
2021/12/01 03:11:34;;;;;;;0.00;0.00;;;11.80;99.90;;;;;;5052080;28;20056;-82
2021/12/01 03:14:00;;;;;;;0.05;0.05;;;11.80;99.90;;;;;;5052231;28;20028;-81
2021/12/01 03:16:26;;;;;;;0.63;0.63;;;11.90;99.90;;;;;;5052710;28;20021;-81
2021/12/01 03:18:52;;;;;;;3.53;0.32;;;11.90;99.90;;;;;;5051005;28;20025;-80
2021/12/01 03:21:18;;;;;;;0.10;0.10;;;11.80;99.90;;;;;;5052545;28;20036;-81
2021/12/01 03:23:44;;;;;;;1.02;0.63;;;11.90;99.90;;;;;;5052476;28;20029;-82
2021/12/01 03:26:11;;;;;;;0.05;0.05;;;11.90;99.90;;;;;;5052060;28;20045;-81
2021/12/01 03:28:38;;;;;;;1.75;0.63;;;11.90;99.90;;;;;;5052601;28;20025;-81
2021/12/01 03:31:04;;;;;;;0.00;0.00;;;11.90;99.90;;;;;;5052515;28;20108;-81
2021/12/01 03:33:30;;;;;;;0.10;0.10;;;11.80;99.90;;;;;;5052080;28;20109;-81
2021/12/01 03:35:55;;;;;;;0.30;0.30;;;11.90;99.90;;;;;;5052667;28;20071;-80
2021/12/01 03:38:25;;;;;;;0.00;0.00;;;11.90;99.90;;;;;;5052320;28;20060;-81
2021/12/01 03:40:51;;;;;;;0.00;0.00;;;12.00;99.90;;;;;;5051646;28;20028;-81
2021/12/01 03:43:16;;;;;;;0.00;0.00;;;11.90;99.90;;;;;;5052688;28;20100;-81
2021/12/01 03:45:43;;;;;;;0.00;0.00;;;12.00;99.90;;;;;;5052478;28;20032;-81
2021/12/01 03:48:08;;;;;;;0.47;0.47;;;12.00;99.90;;;;;;5052418;28;20522;-81
2021/12/01 03:50:36;;;;;;;0.00;0.00;;;12.00;99.90;;;;;;5052489;28;20061;-80
2021/12/01 03:53:02;;;;;;;1.90;1.08;;;11.90;99.90;;;;;;5052278;28;20025;-81
2021/12/01 03:55:28;;;;;;;0.15;0.15;;;11.90;99.90;;;;;;5052731;28;20032;-81
2021/12/01 03:57:53;;;;;;;0.00;0.00;;;12.00;99.90;;;;;;5050985;28;20013;-80
2021/12/01 04:00:19;;;;;;;0.00;0.00;;;11.90;99.90;;;;;;5051781;28;20032;-81
2021/12/01 04:02:48;;;;;;;1.95;1.33;;;12.00;99.90;;;;;;5052292;28;20025;-80
2021/12/01 04:05:15;;;;;;;2.95;0.88;;;12.00;99.90;;;;;;5052060;28;20029;-80
2021/12/01 04:07:41;;;;;;;0.95;0.68;;;11.90;99.90;;;;;;5052307;28;20022;-81
2021/12/01 04:10:11;;;;;;;0.08;0.08;;;11.90;99.90;;;;;;5051147;28;20017;-80
2021/12/01 04:12:37;;;;;;;1.17;1.00;;;11.90;99.90;;;;;;5051399;28;20565;-80
2021/12/01 04:15:03;;;;;;;0.00;0.00;;;11.90;99.90;;;;;;5052226;28;20469;-80
2021/12/01 04:17:29;;;;;;;0.00;0.00;;;11.90;99.90;;;;;;5051940;28;20035;-80
2021/12/01 04:19:55;;;;;;;0.22;0.22;;;12.00;99.90;;;;;;5052081;28;20033;-80
2021/12/01 04:22:20;;;;;;;0.00;0.00;;;11.90;99.90;;;;;;5052155;28;20479;-80
2021/12/01 04:24:46;;;;;;;0.80;0.43;;;12.00;99.90;;;;;;5052219;28;20024;-80
2021/12/01 04:27:12;;;;;;;0.00;0.00;;;12.00;99.90;;;;;;5052130;28;20061;-80
2021/12/01 04:29:38;;;;;;;0.00;0.00;;;12.00;99.90;;;;;;5052286;28;20048;-80
2021/12/01 04:32:05;;;;;;;0.00;0.00;;;12.00;99.90;;;;;;5051983;28;20512;-80
2021/12/01 04:34:30;;;;;;;2.65;1.13;;;12.00;99.90;;;;;;5051406;28;20021;-80
2021/12/01 04:36:56;;;;;;;1.25;1.15;;;12.00;99.90;;;;;;5051687;28;20028;-80
2021/12/01 04:39:22;;;;;;;0.13;0.13;;;12.00;99.90;;;;;;5051721;28;20060;-79
2021/12/01 04:41:52;;;;;;;1.30;0.75;;;12.00;99.90;;;;;;5054793;28;20057;-80
2021/12/01 04:44:24;;;;;;;0.00;0.00;;;12.00;99.90;;;;;;5055627;28;20480;-80
2021/12/01 04:46:53;;;;;;;0.00;0.00;;;12.00;99.90;;;;;;5055467;28;20028;-80
2021/12/01 04:49:21;;;;;;;0.00;0.00;;;11.90;99.90;;;;;;5054894;28;20052;-79
2021/12/01 04:51:50;;;;;;;0.00;0.00;;;12.00;99.90;;;;;;5054953;28;20021;-80
2021/12/01 04:54:17;;;;;;;11.07;2.72;;;12.00;99.90;;;;;;5055334;28;20412;-80
2021/12/01 04:56:45;;;;;;;0.30;0.30;;;12.00;99.90;;;;;;5055452;28;20033;-80
2021/12/01 04:59:10;;;;;;;0.10;0.00;;;12.00;99.90;;;;;;5055292;28;20024;-80
2021/12/01 05:01:36;;;;;;;0.00;0.00;;;12.00;99.90;;;;;;5054711;28;20407;-80
2021/12/01 05:04:03;;;;;;;0.00;0.00;;;12.00;99.90;;;;;;5054388;28;20025;-80
2021/12/01 05:06:29;;;;;;;0.52;0.52;;;12.00;99.90;;;;;;5055202;28;20492;-82
2021/12/01 05:08:55;;;;;;;0.75;0.10;;;11.90;99.90;;;;;;5055244;28;20028;-81
2021/12/01 05:11:21;;;;;;;0.17;0.17;;;11.80;99.90;;;;;;5055086;28;20040;-82
2021/12/01 05:13:46;;;;;;;0.40;0.40;;;11.80;99.90;;;;;;5055309;28;20552;-82
2021/12/01 05:16:12;;;;;;;0.00;0.00;;;11.70;99.90;;;;;;5053213;28;20028;-82
2021/12/01 05:18:38;;;;;;;2.83;2.05;;;11.70;99.90;;;;;;5054637;28;20025;-82
2021/12/01 05:21:04;;;;;;;0.00;0.00;;;11.70;99.90;;;;;;5055100;28;20089;-80
2021/12/01 05:23:30;;;;;;;30.00;2.38;;;11.70;99.90;;;;;;5055045;28;20119;-81
2021/12/01 05:25:56;;;;;;;18.73;0.60;;;11.80;99.90;;;;;;5054593;28;20107;-82
2021/12/01 05:28:22;;;;;;;0.65;0.65;;;11.70;99.90;;;;;;5054851;28;20029;-81
2021/12/01 05:30:47;;;;;;;3.50;1.27;;;11.70;99.90;;;;;;5054671;28;20104;-81
2021/12/01 05:33:14;;;;;;;0.90;0.65;;;11.70;99.90;;;;;;5054170;28;20017;-80
2021/12/01 05:35:42;;;;;;;32.90;1.15;;;11.70;99.90;;;;;;5054620;28;20395;-82
2021/12/01 05:38:08;;;;;;;0.00;0.00;;;11.70;99.90;;;;;;5053622;28;20032;-81
2021/12/01 05:40:34;;;;;;;0.00;0.00;;;11.70;99.90;;;;;;5053694;28;20442;-80
2021/12/01 05:43:00;;;;;;;0.30;0.30;;;11.70;99.90;;;;;;5054734;28;20511;-80
2021/12/01 05:45:25;;;;;;;0.00;0.00;;;11.70;99.90;;;;;;5054804;28;20021;-81
2021/12/01 05:47:51;;;;;;;0.30;0.30;;;11.70;99.90;;;;;;5054304;28;20025;-80
2021/12/01 05:50:18;;;;;;;2.28;1.45;;;11.60;99.90;;;;;;5054510;28;20039;-82
2021/12/01 05:52:44;;;;;;;2.25;0.75;;;11.60;99.90;;;;;;5054148;28;20017;-82
2021/12/01 05:55:10;;;;;;;2.65;1.75;;;11.60;99.90;;;;;;5054748;28;20027;-82
2021/12/01 05:57:36;;;;;;;1.00;0.85;;;11.70;99.90;;;;;;5047606;28;20677;-81
2021/12/01 06:00:06;;;;;;;0.10;0.10;;;11.70;99.90;;;;;;5051473;28;20044;-82
2021/12/01 06:02:32;;;;;;;0.75;0.30;;;11.70;99.90;;;;;;5054025;28;20507;-82
2021/12/01 06:04:58;;;;;;;4.22;1.25;;;11.70;99.90;;;;;;5053657;28;20071;-82
2021/12/01 06:07:24;;;;;;;2.50;0.80;;;11.70;99.90;;;;;;5052685;28;20040;-82
2021/12/01 06:09:49;;;;;;;0.00;0.00;;;11.60;99.90;;;;;;5053270;28;20032;-82
2021/12/01 06:12:15;;;;;;;2.00;1.30;;;11.60;99.90;;;;;;5053678;28;20029;-83
2021/12/01 06:14:42;;;;;;;0.00;0.00;;;11.60;99.90;;;;;;5054045;28;20029;-82
2021/12/01 06:17:10;;;;;;;0.10;0.10;;;11.60;99.90;;;;;;5053437;28;20036;-81
2021/12/01 06:19:39;;;;;;;1.58;0.93;;;11.60;99.90;;;;;;5054111;28;20033;-82
2021/12/01 06:22:05;;;;;;;1.27;0.73;;;11.60;99.90;;;;;;5053847;28;20052;-81
2021/12/01 06:24:31;;;;;;;0.90;0.30;;;11.60;99.90;;;;;;5053563;28;20017;-80
2021/12/01 06:26:57;;;;;;;0.00;0.00;;;11.70;99.90;;;;;;5053376;28;20053;-82
2021/12/01 06:29:23;;;;;;;1.75;1.25;;;11.70;99.90;;;;;;5053563;28;20108;-81
2021/12/01 06:31:48;;;;;;;0.00;0.00;;;11.70;99.90;;;;;;5053514;28;20028;-81
2021/12/01 06:34:14;;;;;;;0.05;0.05;;;11.80;99.90;;;;;;5049841;28;20033;-81
2021/12/01 06:36:40;;;;;;;0.00;0.00;;;11.80;99.90;;;;;;5051994;28;20029;-81
2021/12/01 06:39:07;;;;;;;0.00;0.00;;;11.80;99.90;;;;;;5053001;28;20112;-81
2021/12/01 06:41:33;;;;;;;0.00;0.00;;;11.80;99.90;;;;;;5051659;28;20025;-82
2021/12/01 06:43:59;;;;;;;0.20;0.20;;;11.80;99.90;;;;;;5052930;28;20032;-81
2021/12/01 06:46:25;;;;;;;0.00;0.00;;;11.80;99.90;;;;;;5051902;28;20021;-81
2021/12/01 06:48:51;;;;;;;0.00;0.00;;;11.90;99.90;;;;;;5060280;28;20040;-81
2021/12/01 06:51:17;;;;;;;0.00;0.00;;;11.80;99.90;;;;;;5057037;28;20389;-82
2021/12/01 06:53:43;;;;;;;0.10;0.10;;;11.80;99.90;;;;;;5051435;28;20029;-81
2021/12/01 06:56:09;;;;;;;0.32;0.30;;;11.80;99.90;;;;;;5056837;28;20372;-81
2021/12/01 06:58:36;;;;;;;1.40;0.75;;;11.80;99.90;;;;;;5060945;28;20031;-81
2021/12/01 07:01:04;;;;;;;0.20;0.20;;;11.70;99.90;;;;;;5059501;28;20032;-81
2021/12/01 07:03:31;;;;;;;0.20;0.20;;;11.70;99.90;;;;;;5052806;28;20139;-81
2021/12/01 07:05:56;;;;;;;0.00;0.00;;;11.70;99.90;;;;;;5057132;28;20035;-82
2021/12/01 07:08:23;;;;;;;0.00;0.00;;;11.70;99.90;;;;;;5066720;28;20032;-80
2021/12/01 07:10:48;;;;;;;0.03;0.03;;;11.60;99.90;;;;;;5050474;28;20390;-81
2021/12/01 07:13:14;;;;;;;0.30;0.22;;;11.60;99.90;;;;;;5053955;28;20025;-80
2021/12/01 07:15:40;;;;;;;0.08;0.08;;;11.50;99.90;;;;;;5052150;28;20424;-80
2021/12/01 07:18:06;;;;;;;0.17;0.17;;;11.40;99.90;;;;;;5059277;28;20112;-80
2021/12/01 07:20:31;;;;;;;0.75;0.75;;;11.40;99.90;;;;;;5063615;28;20025;-80
2021/12/01 07:22:57;;;;;;;3.17;1.45;;;11.30;99.90;;;;;;5053732;28;20036;-80
2021/12/01 07:25:23;;;;;;;0.17;0.17;;;11.30;99.90;;;;;;5058931;28;20598;-80
2021/12/01 07:27:48;;;;;;;0.10;0.10;;;11.30;99.90;;;;;;5065344;28;20395;-80
2021/12/01 07:30:14;;;;;;;1.75;0.68;;;11.20;99.90;;;;;;5056608;28;20536;-80
2021/12/01 07:32:40;;;;;;;0.63;0.63;;;11.10;99.90;;;;;;5055166;28;20025;-81
2021/12/01 07:35:06;;;;;;;0.65;0.65;;;11.00;99.90;;;;;;5049673;28;20029;-82
2021/12/01 07:37:32;;;;;;;0.10;0.10;;;10.90;99.90;;;;;;5063355;28;20106;-81
2021/12/01 07:39:57;;;;;;;1.75;0.70;;;10.80;99.90;;;;;;5041710;28;20048;-76
2021/12/01 07:42:23;;;;;;;0.00;0.00;;;10.80;99.90;;;;;;5049703;28;20040;-76
2021/12/01 07:44:49;;;;;;;14.00;0.80;;;10.80;99.90;;;;;;5048279;28;20037;-77
2021/12/01 07:47:14;;;;;;;0.55;0.55;;;10.70;99.90;;;;;;5054355;28;20035;-77
2021/12/01 07:49:40;;;;;;;0.40;0.40;;;10.60;99.90;;;;;;5050054;28;20029;-77
2021/12/01 07:52:08;;;;;;;0.00;0.00;;;10.60;99.90;;;;;;5054205;28;20028;-78
2021/12/01 07:54:34;;;;;;;1.17;0.90;;;10.60;99.90;;;;;;5063041;28;20051;-78
2021/12/01 07:57:01;;;;;;;5.18;0.60;;;10.50;99.90;;;;;;5059888;28;20017;-76
2021/12/01 07:59:27;;;;;;;0.00;0.00;;;10.50;99.90;;;;;;5049292;28;20025;-76
2021/12/01 08:01:53;;;;;;;0.00;0.00;;;10.50;99.90;;;;;;5049084;28;20029;-79
2021/12/01 08:04:19;;;;;;;3.83;2.72;;;10.50;99.90;;;;;;5048663;28;20090;-80
2021/12/01 08:06:45;;;;;;;28.38;0.85;;;10.50;99.90;;;;;;5052754;28;20398;-77
2021/12/01 08:09:11;;;;;;;0.00;0.00;;;10.50;99.90;;;;;;5044803;28;20033;-80
2021/12/01 08:11:38;;;;;;;1.10;0.75;;;10.50;99.90;;;;;;5043323;28;20032;-78
2021/12/01 08:14:06;;;;;;;7.68;1.25;;;10.50;99.90;;;;;;5051970;28;20136;-81
2021/12/01 08:16:33;;;;;;;0.17;0.17;;;10.60;99.90;;;;;;5050961;28;20042;-78
2021/12/01 08:18:59;;;;;;;10.40;3.72;;;10.60;99.90;;;;;;5057609;28;20040;-80
2021/12/01 08:21:25;;;;;;;1.35;1.20;;;10.70;99.90;;;;;;5056014;28;20025;-79
2021/12/01 08:23:52;;;;;;;3.72;2.85;;;10.70;99.90;;;;;;5052104;28;20025;-80
2021/12/01 08:26:18;;;;;;;0.00;0.00;;;10.80;99.90;;;;;;5052390;28;20062;-80
2021/12/01 08:28:46;;;;;;;2.92;1.35;;;10.80;99.90;;;;;;5058871;28;20035;-80
2021/12/01 08:31:13;;;;;;;0.00;0.00;;;10.80;99.90;;;;;;5056139;28;20407;-80
2021/12/01 08:33:40;;;;;;;0.10;0.10;;;10.80;99.90;;;;;;5055831;28;20035;-84
2021/12/01 08:36:06;;;;;;;0.10;0.10;;;10.80;99.90;;;;;;5052289;28;20029;-83
2021/12/01 08:38:31;;;;;;;0.00;0.00;;;10.80;99.90;;;;;;5060811;28;20029;-81
2021/12/01 08:40:58;;;;;;;0.45;0.45;;;10.70;99.90;;;;;;5057540;28;20115;-83
2021/12/01 08:43:23;;;;;;;0.00;0.00;;;10.70;99.90;;;;;;5055387;28;20430;-82
2021/12/01 08:45:49;;;;;;;0.10;0.10;;;10.80;99.90;;;;;;5055153;28;20031;-84
2021/12/01 08:48:15;;;;;;;0.00;0.00;;;10.80;99.90;;;;;;5058085;28;20287;-81
2021/12/01 08:50:40;;;;;;;0.10;0.10;;;10.80;99.90;;;;;;5048009;28;20029;-81
2021/12/01 08:53:06;;;;;;;0.38;0.38;;;10.80;99.90;;;;;;5055085;28;20396;-84
2021/12/01 08:55:32;;;;;;;0.60;0.45;;;10.80;99.90;;;;;;5051251;28;20017;-83
2021/12/01 08:57:57;;;;;;;0.20;0.20;;;10.80;99.90;;;;;;5049111;28;20029;-82
2021/12/01 09:00:23;;;;;;;0.85;0.75;;;10.80;99.90;;;;;;5050101;28;20089;-81
2021/12/01 09:02:49;;;;;;;4.03;2.33;;;10.70;99.90;;;;;;5054193;28;20029;-80
2021/12/01 09:05:15;;;;;;;0.52;0.52;;;10.80;99.90;;;;;;5052853;28;20147;-85
2021/12/01 09:07:40;;;;;;;3.72;2.20;;;10.80;99.90;;;;;;5055352;28;20084;-82
2021/12/01 09:10:07;;;;;;;0.30;0.30;;;10.80;99.90;;;;;;5055911;28;20064;-82
2021/12/01 09:12:33;;;;;;;5.32;0.90;;;10.90;99.90;;;;;;5049127;28;20048;-82
2021/12/01 09:14:59;;;;;;;2.20;1.48;;;11.00;99.90;;;;;;5053282;28;20025;-80
2021/12/01 09:17:25;;;;;;;0.05;0.05;;;11.00;99.90;;;;;;5053900;28;20392;-80
2021/12/01 09:19:52;;;;;;;0.00;0.00;;;11.10;99.90;;;;;;5067404;28;20025;-81
2021/12/01 09:22:18;;;;;;;4.38;1.85;;;11.10;99.90;;;;;;5062167;28;20021;-81
2021/12/01 09:24:46;;;;;;;1.38;1.15;;;11.20;99.90;;;;;;5054666;28;20053;-82
2021/12/01 09:27:12;;;;;;;1.08;1.08;;;11.20;99.90;;;;;;5049875;28;20458;-80
2021/12/01 09:29:37;;;;;;;1.70;1.38;;;11.20;99.90;;;;;;5044231;28;20104;-81
2021/12/01 09:32:04;;;;;;;1.08;1.08;;;11.10;99.90;;;;;;5045865;28;20128;-79
2021/12/01 09:34:30;;;;;;;0.10;0.10;;;11.10;99.90;;;;;;5053658;28;20066;-80
2021/12/01 09:36:56;;;;;;;0.20;0.20;;;11.10;99.90;;;;;;5052251;28;20483;-81
2021/12/01 09:39:24;;;;;;;0.10;0.10;;;11.20;99.90;;;;;;5053905;28;20060;-85
2021/12/01 09:41:49;;;;;;;1.63;0.95;;;11.30;99.90;;;;;;5054142;28;20033;-83
2021/12/01 09:44:15;;;;;;;1.88;1.00;;;11.30;99.90;;;;;;5052869;28;20455;-81
2021/12/01 09:46:42;;;;;;;0.80;0.80;;;11.30;99.90;;;;;;5053789;28;20116;-80
2021/12/01 09:49:07;;;;;;;0.30;0.30;;;11.30;99.90;;;;;;5053335;28;20480;-81
2021/12/01 09:51:33;;;;;;;0.10;0.10;;;11.20;99.90;;;;;;5055778;28;20036;-81
2021/12/01 09:54:00;;;;;;;1.23;0.55;;;11.30;99.90;;;;;;5057397;28;20024;-80
2021/12/01 09:56:27;;;;;;;0.47;0.47;;;11.30;99.90;;;;;;5061233;28;20039;-81
2021/12/01 09:58:53;;;;;;;0.10;0.10;;;11.40;99.90;;;;;;5056514;28;20028;-79
2021/12/01 10:01:21;;;;;;;0.95;0.95;;;11.50;99.90;;;;;;5058807;28;20152;-80
2021/12/01 10:03:47;;;;;;;0.10;0.10;;;11.50;99.90;;;;;;5052283;28;20499;-80
2021/12/01 10:06:17;;;;;;;0.00;0.00;;;11.60;99.90;;;;;;5062298;28;20033;-78
2021/12/01 10:09:03;;;;;;;1.48;0.98;;;11.70;99.90;;;;;;5054200;28;20021;-78
2021/12/01 10:11:32;;;;;;;8.93;1.25;;;11.70;99.90;;;;;;5049710;28;20098;-78
2021/12/01 10:14:02;;;;;;;0.00;0.00;;;11.70;99.90;;;;;;5053092;28;20013;-80
2021/12/01 10:16:38;;;;;;;0.15;0.10;;;11.80;99.90;;;;;;5045462;28;20037;-78
2021/12/01 10:19:08;;;;;;;5.88;1.85;;;11.90;99.90;;;;;;5050394;28;20554;-78
2021/12/01 10:21:45;;;;;;;1.38;1.35;;;11.90;99.90;;;;;;5053180;28;20039;-77
2021/12/01 10:24:21;;;;;;;2.17;1.38;;;12.00;99.90;;;;;;5051304;28;20059;-77
2021/12/01 10:26:58;;;;;;;0.98;0.70;;;12.00;99.90;;;;;;5037522;28;20049;-78
2021/12/01 10:29:33;;;;;;;1.17;1.08;;;12.00;99.90;;;;;;5035775;28;20065;-78
2021/12/01 10:32:02;;;;;;;0.22;0.20;;;12.10;99.90;;;;;;5045511;28;20087;-82
2021/12/01 10:34:31;;;;;;;0.00;0.00;;;12.10;99.90;;;;;;5053705;28;20403;-82
2021/12/01 10:37:28;;;;;;;0.00;0.00;;;12.20;99.90;;;;;;5055967;28;20043;-79
2021/12/01 10:40:08;;;;;;;0.52;0.45;;;12.20;99.90;;;;;;5055804;28;20013;-81
2021/12/01 10:42:34;;;;;;;4.95;0.32;;;12.20;99.90;;;;;;5049979;28;20082;-82
2021/12/01 10:45:04;;;;;;;2.75;1.20;;;12.30;99.90;;;;;;5048918;28;20025;-80
2021/12/01 10:47:57;;;;;;;1.65;1.15;;;12.30;99.90;;;;;;5053042;28;20499;-78
2021/12/01 10:50:26;;;;;;;0.98;0.90;;;12.40;99.90;;;;;;5050032;28;20138;-80
2021/12/01 10:53:00;;;;;;;1.25;0.65;;;12.50;99.90;;;;;;5054526;28;20404;-79
2021/12/01 10:55:27;;;;;;;0.45;0.45;;;12.50;99.90;;;;;;5055537;28;20033;-79
2021/12/01 10:57:57;;;;;;;0.00;0.00;;;12.50;99.90;;;;;;5055266;28;20060;-79
2021/12/01 11:00:28;;;;;;;1.23;1.15;;;12.50;99.90;;;;;;5055072;28;20016;-78
2021/12/01 11:03:06;;;;;;;0.85;0.85;;;12.60;99.90;;;;;;5051886;28;20075;-80
2021/12/01 11:05:37;;;;;;;0.25;0.25;;;12.70;99.90;;;;;;5046228;28;20388;-79
2021/12/01 11:08:16;;;;;;;7.20;0.98;;;12.70;99.90;;;;;;5058380;28;20029;-78
2021/12/01 11:10:44;;;;;;;1.33;1.20;;;12.70;99.90;;;;;;5044374;28;20025;-79
2021/12/01 11:13:11;;;;;;;0.35;0.35;;;12.80;99.90;;;;;;5051489;28;20111;-78
2021/12/01 11:15:40;;;;;;;0.25;0.00;;;12.80;99.90;;;;;;5051671;28;20021;-78
2021/12/01 11:18:08;;;;;;;7.95;0.82;;;12.90;99.90;;;;;;5053701;28;20033;-79
2021/12/01 11:20:35;;;;;;;0.50;0.35;;;12.80;99.90;;;;;;5054366;28;20028;-76
2021/12/01 11:23:34;;;;;;;1.05;0.98;;;12.80;99.90;;;;;;5042566;28;20025;-78
2021/12/01 11:26:04;;;;;;;3.40;2.28;;;12.90;99.90;;;;;;5049542;28;20048;-79
2021/12/01 11:28:32;;;;;;;3.92;1.95;;;13.00;99.90;;;;;;5049170;28;20025;-78
2021/12/01 11:31:01;;;;;;;4.03;1.13;;;13.00;99.90;;;;;;5055181;28;20025;-78
2021/12/01 11:33:28;;;;;;;7.72;1.55;;;13.00;99.90;;;;;;5047890;28;20029;-79
2021/12/01 11:36:00;;;;;;;1.48;0.93;;;13.20;99.90;;;;;;5055289;28;20499;-80
2021/12/01 11:38:27;;;;;;;37.67;1.17;;;13.20;99.90;;;;;;5040229;28;20055;-78
2021/12/01 11:40:55;;;;;;;0.57;0.57;;;13.20;99.90;;;;;;5052990;28;20037;-78
2021/12/01 11:43:24;;;;;;;1.85;1.48;;;13.30;99.90;;;;;;5058252;28;20063;-80
2021/12/01 11:45:50;;;;;;;4.18;1.55;;;13.30;99.90;;;;;;5052336;28;20048;-79
2021/12/01 11:48:22;;;;;;;30.88;0.75;;;13.30;99.90;;;;;;5057972;28;20035;-79
2021/12/01 11:51:19;;;;;;;0.00;0.00;;;13.30;99.90;;;;;;5056478;28;20126;-79
2021/12/01 11:54:07;;;;;;;0.70;0.70;;;13.20;99.90;;;;;;5058251;28;20053;-79
2021/12/01 11:56:35;;;;;;;0.50;0.50;;;13.20;99.90;;;;;;5057420;28;20445;-79
2021/12/01 11:59:20;;;;;;;0.00;0.00;;;13.20;99.90;;;;;;5057002;28;20017;-79
2021/12/01 12:01:51;;;;;;;6.18;0.70;;;13.40;99.90;;;;;;5051941;28;20037;-79
2021/12/01 12:04:20;;;;;;;0.10;0.10;;;13.40;99.90;;;;;;5057014;28;20097;-79
2021/12/01 12:07:06;;;;;;;4.82;2.10;;;13.50;99.90;;;;;;5054915;28;20041;-79
2021/12/01 12:09:32;;;;;;;15.00;2.00;;;13.40;99.90;;;;;;5055855;28;20506;-79
2021/12/01 12:12:02;;;;;;;0.20;0.20;;;13.40;99.90;;;;;;5054922;28;20164;-78
2021/12/01 12:14:35;;;;;;;0.57;0.55;;;13.40;99.90;;;;;;5058055;28;20021;-78
2021/12/01 12:17:13;;;;;;;0.10;0.10;;;13.40;99.90;;;;;;5052725;28;20056;-79
2021/12/01 12:19:52;;;;;;;0.17;0.17;;;13.50;99.90;;;;;;5054302;28;20033;-78
2021/12/01 12:22:52;;;;;;;2.67;1.67;;;13.50;99.90;;;;;;5058503;28;20072;-79
2021/12/01 12:25:39;;;;;;;0.30;0.30;;;13.50;99.90;;;;;;5056836;28;20134;-80
2021/12/01 12:28:23;;;;;;;3.75;1.65;;;13.60;99.90;;;;;;5052748;28;20063;-78
2021/12/01 12:30:50;;;;;;;0.70;0.55;;;13.70;99.90;;;;;;5057154;28;20031;-80
2021/12/01 12:33:26;;;;;;;2.42;1.10;;;13.80;99.90;;;;;;5052096;28;20037;-78
2021/12/01 12:35:55;;;;;;;0.60;0.60;;;13.70;99.90;;;;;;5055765;28;20494;-80
2021/12/01 12:38:21;;;;;;;0.20;0.20;;;13.90;99.90;;;;;;5053708;28;20104;-78
2021/12/01 12:40:58;;;;;;;0.75;0.47;;;14.00;99.90;;;;;;5056468;28;20121;-77
2021/12/01 12:43:25;;;;;;;0.43;0.43;;;14.00;99.90;;;;;;5056679;28;20090;-79
2021/12/01 12:46:07;;;;;;;0.20;0.20;;;14.00;99.90;;;;;;5054962;28;20060;-81
2021/12/01 12:48:36;;;;;;;0.45;0.45;;;13.90;99.90;;;;;;5052903;28;20377;-80
2021/12/01 12:51:32;;;;;;;1.95;1.25;;;13.90;99.90;;;;;;5053513;28;20067;-80
2021/12/01 12:54:07;;;;;;;0.03;0.03;;;14.00;99.90;;;;;;5047061;28;20052;-80
2021/12/01 12:56:39;;;;;;;25.40;4.18;;;14.00;99.90;;;;;;5053796;28;20033;-80
2021/12/01 12:59:24;;;;;;;0.90;0.43;;;14.00;99.90;;;;;;5053376;28;20018;-80